createdAt,value
2022-10-16T00:00:03.543Z,4.82
2022-10-16T00:02:30.848Z,6.70
2022-10-16T00:04:58.073Z,6.80
2022-10-16T00:07:25.466Z,8.68
2022-10-16T00:09:52.900Z,7.97
2022-10-16T00:12:20.226Z,6.20
2022-10-16T00:14:47.456Z,9.95
2022-10-16T00:17:14.705Z,11.88
2022-10-16T00:19:41.929Z,6.45
2022-10-16T00:22:09.431Z,9.52
2022-10-16T00:24:36.693Z,9.75
2022-10-16T00:27:04.017Z,6.57
2022-10-16T00:29:31.264Z,9.75
2022-10-16T00:31:58.531Z,7.00
2022-10-16T00:34:25.814Z,9.45
2022-10-16T00:36:53.006Z,5.93
2022-10-16T00:39:20.525Z,9.45
2022-10-16T00:41:47.767Z,8.15
2022-10-16T00:44:33.445Z,3.63
2022-10-16T00:47:00.686Z,6.68
2022-10-16T00:49:27.936Z,3.30
2022-10-16T00:51:55.810Z,5.82
2022-10-16T00:54:24.690Z,8.55
2022-10-16T00:56:52.346Z,9.35
2022-10-16T00:59:25.755Z,6.05
2022-10-16T01:01:53.737Z,7.55
2022-10-16T01:04:21.285Z,10.90
2022-10-16T01:06:55.637Z,11.35
2022-10-16T01:09:30.061Z,6.20
2022-10-16T01:12:07.377Z,8.60
2022-10-16T01:14:53.400Z,9.10
2022-10-16T01:17:24.361Z,11.48
2022-10-16T01:20:10.216Z,5.72
2022-10-16T01:22:45.616Z,7.80
2022-10-16T01:25:18.764Z,10.30
2022-10-16T01:27:47.644Z,12.38
2022-10-16T01:30:34.095Z,16.50
2022-10-16T01:33:10.337Z,5.82
2022-10-16T01:35:42.711Z,11.35
2022-10-16T01:38:14.284Z,8.38
2022-10-16T01:40:43.227Z,6.53
2022-10-16T01:43:13.020Z,7.13
2022-10-16T01:45:41.020Z,8.25
2022-10-16T01:48:10.659Z,9.13
2022-10-16T01:50:40.951Z,3.17
2022-10-16T01:53:09.480Z,12.38
2022-10-16T01:55:40.134Z,4.32
2022-10-16T01:58:09.087Z,5.68
2022-10-16T02:00:39.077Z,17.35
2022-10-16T02:03:06.737Z,5.30
2022-10-16T02:05:45.567Z,7.15
2022-10-16T02:08:13.112Z,12.32
2022-10-16T02:10:40.462Z,6.53
2022-10-16T02:13:10.763Z,7.50
2022-10-16T02:15:38.163Z,11.48
2022-10-16T02:18:07.046Z,5.60
2022-10-16T02:20:36.236Z,4.47
2022-10-16T02:23:05.081Z,4.43
2022-10-16T02:25:33.706Z,4.38
2022-10-16T02:28:08.211Z,7.85
2022-10-16T02:30:41.836Z,8.70
2022-10-16T02:33:10.875Z,4.78
2022-10-16T02:35:39.331Z,5.30
2022-10-16T02:38:07.200Z,8.30
2022-10-16T02:40:35.061Z,11.00
2022-10-16T02:43:02.251Z,7.80
2022-10-16T02:45:30.253Z,4.45
2022-10-16T02:47:57.487Z,4.50
2022-10-16T02:50:26.088Z,8.00
2022-10-16T02:52:53.311Z,7.50
2022-10-16T02:55:20.568Z,4.85
2022-10-16T02:57:47.820Z,7.40
2022-10-16T03:00:16.073Z,11.38
2022-10-16T03:02:43.371Z,5.88
2022-10-16T03:05:10.907Z,6.05
2022-10-16T03:07:38.236Z,7.88
2022-10-16T03:10:05.679Z,10.52
2022-10-16T03:12:32.899Z,7.85
2022-10-16T03:15:00.484Z,10.40
2022-10-16T03:17:27.940Z,7.22
2022-10-16T03:19:55.529Z,5.40
2022-10-16T03:22:22.779Z,7.15
2022-10-16T03:24:49.981Z,7.18
2022-10-16T03:27:17.308Z,7.53
2022-10-16T03:29:44.552Z,9.25
2022-10-16T03:32:11.776Z,3.38
2022-10-16T03:34:39.061Z,7.50
2022-10-16T03:37:06.292Z,5.43
2022-10-16T03:39:33.543Z,4.43
2022-10-16T03:42:00.766Z,11.07
2022-10-16T03:44:27.957Z,6.20
2022-10-16T03:46:55.175Z,5.00
2022-10-16T03:49:22.367Z,4.65
2022-10-16T03:51:49.591Z,4.18
2022-10-16T03:54:16.835Z,7.18
2022-10-16T03:56:44.039Z,4.72
2022-10-16T03:59:11.285Z,6.13
2022-10-16T04:01:38.483Z,8.20
2022-10-16T04:04:05.717Z,5.40
2022-10-16T04:06:32.958Z,10.50
2022-10-16T04:09:00.259Z,8.43
2022-10-16T04:11:27.511Z,5.72
2022-10-16T04:13:54.750Z,6.53
2022-10-16T04:16:21.975Z,3.88
2022-10-16T04:18:49.229Z,8.48
2022-10-16T04:21:16.552Z,6.47
2022-10-16T04:23:44.443Z,9.70
2022-10-16T04:26:11.746Z,4.25
2022-10-16T04:28:39.045Z,4.40
2022-10-16T04:31:06.862Z,5.43
2022-10-16T04:33:34.312Z,5.30
2022-10-16T04:36:02.091Z,6.75
2022-10-16T04:38:29.352Z,5.55
2022-10-16T04:40:56.617Z,5.75
2022-10-16T04:43:24.439Z,3.95
2022-10-16T04:45:52.031Z,7.20
2022-10-16T04:48:19.874Z,5.50
2022-10-16T04:50:51.675Z,7.63
2022-10-16T04:53:22.300Z,4.53
2022-10-16T04:55:49.590Z,14.80
2022-10-16T04:58:16.805Z,11.85
2022-10-16T05:00:44.322Z,6.15
2022-10-16T05:03:11.653Z,3.38
2022-10-16T05:05:38.955Z,6.65
2022-10-16T05:08:06.234Z,7.93
2022-10-16T05:10:33.472Z,9.82
2022-10-16T05:13:00.716Z,5.78
2022-10-16T05:15:28.175Z,6.35
2022-10-16T05:17:55.805Z,8.90
2022-10-16T05:20:23.798Z,4.78
2022-10-16T05:22:51.068Z,4.95
2022-10-16T05:25:18.296Z,8.27
2022-10-16T05:27:45.528Z,6.03
2022-10-16T05:30:12.803Z,5.43
2022-10-16T05:32:40.025Z,5.97
2022-10-16T05:35:10.161Z,3.65
2022-10-16T05:37:39.862Z,7.38
2022-10-16T05:40:07.378Z,4.95
2022-10-16T05:42:34.600Z,10.07
2022-10-16T05:45:01.922Z,5.75
2022-10-16T05:47:29.467Z,4.30
2022-10-16T05:49:56.959Z,5.18
2022-10-16T05:52:24.212Z,5.15
2022-10-16T05:54:51.399Z,8.23
2022-10-16T05:57:18.620Z,6.18
2022-10-16T05:59:45.994Z,9.07
2022-10-16T06:02:16.364Z,2.47
2022-10-16T06:04:43.635Z,8.50
2022-10-16T06:07:10.880Z,7.35
2022-10-16T06:09:38.212Z,6.93
2022-10-16T06:12:05.725Z,9.57
2022-10-16T06:14:33.088Z,4.82
2022-10-16T06:17:00.355Z,4.18
2022-10-16T06:19:27.633Z,4.90
2022-10-16T06:21:54.892Z,4.32
2022-10-16T06:24:22.222Z,7.82
2022-10-16T06:26:49.434Z,5.55
2022-10-16T06:29:16.827Z,6.25
2022-10-16T06:31:44.025Z,4.35
2022-10-16T06:34:12.515Z,5.50
2022-10-16T06:36:40.338Z,4.10
2022-10-16T06:39:08.399Z,10.20
2022-10-16T06:41:35.902Z,6.68
2022-10-16T06:44:03.663Z,4.25
2022-10-16T06:46:30.924Z,7.03
2022-10-16T06:48:58.196Z,7.75
2022-10-16T06:51:26.388Z,5.80
2022-10-16T06:54:03.992Z,4.32
2022-10-16T06:56:32.572Z,6.28
2022-10-16T06:59:00.446Z,8.30
2022-10-16T07:01:28.052Z,4.30
2022-10-16T07:03:55.294Z,4.90
2022-10-16T07:06:23.784Z,3.83
2022-10-16T07:08:51.296Z,6.00
2022-10-16T07:11:19.898Z,3.78
2022-10-16T07:13:51.029Z,7.47
2022-10-16T07:16:23.524Z,7.53
2022-10-16T07:18:55.127Z,8.68
2022-10-16T07:21:23.922Z,7.88
2022-10-16T07:23:54.512Z,5.25
2022-10-16T07:26:22.142Z,7.78
2022-10-16T07:28:49.832Z,8.85
2022-10-16T07:31:17.852Z,5.57
2022-10-16T07:33:46.172Z,4.22
2022-10-16T07:36:16.218Z,10.55
2022-10-16T07:38:44.131Z,5.45
2022-10-16T07:41:12.692Z,7.78
2022-10-16T07:43:39.950Z,6.60
2022-10-16T07:46:07.462Z,5.38
2022-10-16T07:48:35.704Z,5.07
2022-10-16T07:51:03.683Z,6.78
2022-10-16T07:53:30.956Z,6.90
2022-10-16T07:56:05.402Z,6.63
2022-10-16T07:58:32.739Z,10.82
2022-10-16T08:01:00.459Z,9.48
2022-10-16T08:03:27.831Z,4.53
2022-10-16T08:05:55.339Z,10.18
2022-10-16T08:08:22.589Z,4.60
2022-10-16T08:10:50.047Z,8.27
2022-10-16T08:13:17.495Z,6.28
2022-10-16T08:15:45.663Z,10.02
2022-10-16T08:18:14.151Z,5.40
2022-10-16T08:20:41.940Z,4.53
2022-10-16T08:23:10.912Z,7.07
2022-10-16T08:25:38.584Z,4.72
2022-10-16T08:28:06.775Z,7.72
2022-10-16T08:30:34.508Z,3.67
2022-10-16T08:33:01.838Z,5.88
2022-10-16T08:35:29.166Z,6.93
2022-10-16T08:37:56.411Z,6.60
2022-10-16T08:40:33.883Z,7.90
2022-10-16T08:43:16.228Z,8.43
2022-10-16T08:45:43.406Z,6.07
2022-10-16T08:48:16.324Z,7.53
2022-10-16T08:50:44.700Z,5.63
2022-10-16T08:53:16.848Z,2.85
2022-10-16T08:55:45.351Z,7.25
2022-10-16T08:58:19.909Z,8.57
2022-10-16T09:00:51.942Z,8.23
2022-10-16T09:03:25.708Z,19.58
2022-10-16T09:05:56.040Z,14.45
2022-10-16T09:08:33.257Z,4.13
2022-10-16T09:11:05.275Z,4.28
2022-10-16T09:13:45.539Z,5.93
2022-10-16T09:16:26.026Z,4.35
2022-10-16T09:18:56.054Z,3.80
2022-10-16T09:21:28.180Z,4.55
2022-10-16T09:23:56.170Z,7.40
2022-10-16T09:28:53.653Z,8.15
2022-10-16T09:31:22.532Z,9.93
2022-10-16T09:33:59.439Z,6.07
2022-10-16T09:36:27.844Z,7.20
2022-10-16T09:39:08.348Z,7.70
2022-10-16T09:41:37.513Z,8.27
2022-10-16T09:44:05.483Z,3.97
2022-10-16T09:46:32.733Z,8.63
2022-10-16T09:49:01.235Z,4.63
2022-10-16T09:51:29.991Z,6.93
2022-10-16T09:54:15.958Z,8.82
2022-10-16T09:56:46.487Z,7.80
2022-10-16T09:59:14.984Z,6.82
2022-10-16T10:01:52.124Z,9.38
2022-10-16T10:04:20.475Z,9.48
2022-10-16T10:06:52.554Z,6.40
2022-10-16T10:09:21.824Z,9.55
2022-10-16T10:11:49.171Z,4.38
2022-10-16T10:14:19.389Z,6.30
2022-10-16T10:16:47.023Z,7.60
2022-10-16T10:19:18.186Z,9.55
2022-10-16T10:21:45.563Z,7.95
2022-10-16T10:24:17.239Z,8.95
2022-10-16T10:27:01.775Z,6.35
2022-10-16T10:29:33.040Z,7.05
2022-10-16T10:32:00.256Z,12.73
2022-10-16T10:34:39.592Z,32.67
2022-10-16T10:37:17.018Z,7.82
2022-10-16T10:39:48.467Z,8.48
2022-10-16T10:42:35.930Z,11.98
2022-10-16T10:45:03.328Z,8.52
2022-10-16T10:47:38.771Z,12.07
2022-10-16T10:50:06.001Z,7.90
2022-10-16T10:52:35.041Z,14.77
2022-10-16T10:55:34.685Z,9.15
2022-10-16T10:58:14.083Z,8.18
2022-10-16T11:01:07.748Z,14.27
2022-10-16T11:03:41.236Z,7.88
2022-10-16T11:06:17.788Z,9.88
2022-10-16T11:08:57.573Z,8.52
2022-10-16T11:11:32.231Z,14.02
2022-10-16T11:14:08.236Z,15.77
2022-10-16T11:16:39.178Z,14.20
2022-10-16T11:19:21.994Z,11.70
2022-10-16T11:21:52.067Z,10.00
2022-10-16T11:24:32.812Z,19.65
2022-10-16T11:27:04.804Z,16.33
2022-10-16T11:29:32.658Z,12.77
2022-10-16T11:32:07.428Z,21.05
2022-10-16T11:34:44.086Z,13.15
2022-10-16T11:37:17.303Z,9.93
2022-10-16T11:39:45.674Z,16.10
2022-10-16T11:42:12.943Z,15.18
2022-10-16T11:44:59.487Z,19.38
2022-10-16T11:47:47.104Z,15.63
2022-10-16T11:50:24.490Z,13.07
2022-10-16T11:52:51.708Z,16.00
2022-10-16T11:55:20.265Z,16.42
2022-10-16T11:57:49.925Z,11.52
2022-10-16T12:00:17.243Z,14.40
2022-10-16T12:02:44.445Z,20.02
2022-10-16T12:05:32.351Z,11.32
2022-10-16T12:08:10.360Z,11.88
2022-10-16T12:13:07.104Z,12.55
2022-10-16T12:15:57.721Z,13.82
2022-10-16T12:18:26.663Z,15.70
2022-10-16T12:21:00.304Z,11.00
2022-10-16T12:23:27.810Z,11.30
2022-10-16T12:25:59.395Z,12.55
2022-10-16T12:30:55.495Z,17.85
2022-10-16T12:33:24.253Z,26.88
2022-10-16T12:35:51.737Z,11.00
2022-10-16T12:38:39.022Z,13.73
2022-10-16T12:41:09.308Z,18.17
2022-10-16T12:43:39.082Z,9.88
2022-10-16T12:46:07.964Z,11.40
2022-10-16T12:48:48.406Z,17.42
2022-10-16T12:51:22.819Z,15.73
2022-10-16T12:54:25.484Z,12.50
2022-10-16T12:57:11.574Z,13.60
2022-10-16T12:59:38.744Z,14.50
2022-10-16T13:02:09.188Z,9.63
2022-10-16T13:04:49.201Z,11.57
2022-10-16T13:07:22.934Z,16.10
2022-10-16T13:09:50.159Z,12.05
2022-10-16T13:12:32.476Z,9.25
2022-10-16T13:15:20.028Z,11.85
2022-10-16T13:17:47.346Z,8.63
2022-10-16T13:20:20.072Z,11.10
2022-10-16T13:23:05.949Z,11.60
2022-10-16T13:25:40.506Z,12.00
2022-10-16T13:28:09.146Z,10.98
2022-10-16T13:30:46.558Z,12.88
2022-10-16T13:33:21.900Z,13.65
2022-10-16T13:35:58.879Z,12.38
2022-10-16T13:38:28.155Z,10.40
2022-10-16T13:41:00.025Z,14.38
2022-10-16T13:43:35.388Z,8.85
2022-10-16T13:46:02.981Z,11.43
2022-10-16T13:48:30.979Z,11.75
2022-10-16T13:51:17.439Z,17.45
2022-10-16T13:53:45.390Z,29.38
2022-10-16T13:56:13.876Z,15.20
2022-10-16T13:58:41.289Z,19.10
2022-10-16T14:01:32.493Z,10.43
2022-10-16T14:04:07.664Z,8.48
2022-10-16T14:06:35.302Z,10.48
2022-10-16T14:09:05.398Z,9.02
2022-10-16T14:11:32.656Z,12.60
2022-10-16T14:14:00.044Z,15.57
2022-10-16T14:16:28.217Z,12.68
2022-10-16T14:19:00.299Z,11.90
2022-10-16T14:21:27.843Z,16.20
2022-10-16T14:23:55.407Z,11.20
2022-10-16T14:26:24.235Z,11.13
2022-10-16T14:29:03.127Z,9.93
2022-10-16T14:31:32.471Z,5.10
2022-10-16T14:34:00.311Z,14.23
2022-10-16T14:36:28.781Z,11.93
2022-10-16T14:38:55.999Z,11.95
2022-10-16T14:41:24.811Z,8.85
2022-10-16T14:43:53.551Z,8.02
2022-10-16T14:46:27.000Z,12.93
2022-10-16T14:49:00.214Z,14.52
2022-10-16T14:51:27.956Z,10.82
2022-10-16T14:53:59.211Z,13.65
2022-10-16T14:56:33.054Z,19.08
2022-10-16T14:59:00.835Z,12.38
2022-10-16T15:01:28.268Z,28.88
2022-10-16T15:03:56.237Z,80.45
2022-10-16T15:06:23.668Z,14.90
2022-10-16T15:08:50.991Z,6.55
2022-10-16T15:11:19.454Z,14.57
2022-10-16T15:13:46.915Z,11.63
2022-10-16T15:16:16.108Z,14.20
2022-10-16T15:18:43.549Z,11.57
2022-10-16T15:21:17.775Z,13.13
2022-10-16T15:23:45.020Z,16.00
2022-10-16T15:26:12.308Z,10.35
2022-10-16T15:28:39.574Z,12.40
2022-10-16T15:31:06.957Z,19.23
2022-10-16T15:33:38.866Z,13.60
2022-10-16T15:36:07.629Z,14.73
2022-10-16T15:38:34.849Z,14.90
2022-10-16T15:41:02.285Z,16.75
2022-10-16T15:43:29.867Z,11.65
2022-10-16T15:46:02.257Z,12.23
2022-10-16T15:48:30.183Z,13.10
2022-10-16T15:50:57.783Z,15.15
2022-10-16T15:53:25.068Z,11.88
2022-10-16T15:55:52.331Z,7.45
2022-10-16T15:58:19.636Z,30.48
2022-10-16T16:00:46.985Z,55.10
2022-10-16T16:03:14.244Z,55.30
2022-10-16T16:05:45.653Z,14.43
2022-10-16T16:08:14.151Z,19.38
2022-10-16T16:10:41.419Z,16.38
2022-10-16T16:13:08.626Z,15.13
2022-10-16T16:15:35.863Z,9.23
2022-10-16T16:20:37.256Z,14.27
2022-10-16T16:23:04.481Z,16.38
2022-10-16T16:25:31.730Z,18.38
2022-10-16T16:27:58.968Z,17.13
2022-10-16T16:30:28.299Z,14.73
2022-10-16T16:32:55.754Z,26.98
2022-10-16T16:35:23.021Z,12.45
2022-10-16T16:37:50.250Z,13.77
2022-10-16T16:40:17.476Z,21.80
2022-10-16T16:42:44.720Z,14.27
2022-10-16T16:45:11.943Z,17.83
2022-10-16T16:47:39.776Z,15.77
2022-10-16T16:50:08.040Z,16.90
2022-10-16T16:52:36.711Z,17.08
2022-10-16T16:55:04.016Z,18.75
2022-10-16T16:57:31.245Z,18.95
2022-10-16T16:59:58.523Z,18.63
2022-10-16T17:02:26.107Z,14.18
2022-10-16T17:04:53.423Z,15.95
2022-10-16T17:07:24.106Z,21.48
2022-10-16T17:09:51.684Z,16.92
2022-10-16T17:12:18.929Z,18.50
2022-10-16T17:14:46.160Z,22.55
2022-10-16T17:17:13.484Z,17.00
2022-10-16T17:19:40.734Z,24.83
2022-10-16T17:22:07.987Z,23.45
2022-10-16T17:24:35.264Z,19.38
2022-10-16T17:27:02.615Z,18.38
2022-10-16T17:29:29.868Z,15.55
2022-10-16T17:31:59.322Z,14.98
2022-10-16T17:34:26.575Z,16.52
2022-10-16T17:36:54.376Z,20.30
2022-10-16T17:39:21.926Z,16.35
2022-10-16T17:41:49.286Z,21.52
2022-10-16T17:44:20.274Z,16.13
2022-10-16T17:46:48.753Z,16.70
2022-10-16T17:49:16.066Z,13.73
2022-10-16T17:51:43.493Z,12.40
2022-10-16T17:54:11.699Z,21.02
2022-10-16T17:56:38.887Z,21.00
2022-10-16T17:59:07.697Z,18.48
2022-10-16T18:01:36.951Z,18.35
2022-10-16T18:04:09.671Z,17.25
2022-10-16T18:06:38.290Z,23.02
2022-10-16T18:09:06.549Z,21.35
2022-10-16T18:11:33.836Z,15.38
2022-10-16T18:14:01.740Z,18.27
2022-10-16T18:16:30.353Z,25.33
2022-10-16T18:18:57.741Z,14.45
2022-10-16T18:21:27.464Z,13.75
2022-10-16T18:23:55.082Z,15.43
2022-10-16T18:26:22.666Z,16.08
2022-10-16T18:28:52.493Z,16.10
2022-10-16T18:31:20.289Z,20.25
2022-10-16T18:33:51.125Z,10.02
2022-10-16T18:36:20.478Z,16.77
2022-10-16T18:38:47.954Z,24.52
2022-10-16T18:41:15.255Z,22.98
2022-10-16T18:43:42.546Z,21.45
2022-10-16T18:46:11.695Z,22.27
2022-10-16T18:48:39.319Z,12.75
2022-10-16T18:51:08.693Z,22.25
2022-10-16T18:53:36.380Z,15.55
2022-10-16T18:56:03.843Z,15.07
2022-10-16T18:58:31.097Z,18.50
2022-10-16T19:01:03.777Z,18.33
2022-10-16T19:03:31.329Z,20.00
2022-10-16T19:06:02.864Z,12.43
2022-10-16T19:08:32.275Z,23.08
2022-10-16T19:11:19.830Z,30.30
2022-10-16T19:13:50.718Z,21.23
2022-10-16T19:16:20.967Z,25.77
2022-10-16T19:18:49.520Z,21.37
2022-10-16T19:21:17.071Z,27.38
2022-10-16T19:23:44.360Z,21.20
2022-10-16T19:26:20.856Z,27.90
2022-10-16T19:28:48.302Z,18.25
2022-10-16T19:31:16.845Z,26.15
2022-10-16T19:33:44.260Z,17.52
2022-10-16T19:36:12.834Z,22.50
2022-10-16T19:38:40.743Z,30.83
2022-10-16T19:41:08.885Z,27.55
2022-10-16T19:43:36.339Z,25.10
2022-10-16T19:46:07.299Z,33.03
2022-10-16T19:48:34.866Z,19.83
2022-10-16T19:51:02.602Z,29.80
2022-10-16T19:53:30.219Z,35.70
2022-10-16T19:55:58.243Z,25.05
2022-10-16T19:58:25.800Z,38.38
2022-10-16T20:00:54.737Z,26.02
2022-10-16T20:03:22.040Z,25.00
2022-10-16T20:05:52.968Z,24.02
2022-10-16T20:08:20.273Z,29.65
2022-10-16T20:10:51.489Z,32.38
2022-10-16T20:13:19.589Z,74.22
2022-10-16T20:15:47.064Z,107.03
2022-10-16T20:18:15.212Z,40.75
2022-10-16T20:20:43.379Z,24.30
2022-10-16T20:23:11.048Z,24.35
2022-10-16T20:25:39.265Z,25.42
2022-10-16T20:28:07.227Z,29.63
2022-10-16T20:30:35.816Z,28.52
2022-10-16T20:33:03.481Z,27.27
2022-10-16T20:35:30.755Z,26.40
2022-10-16T20:37:58.021Z,24.27
2022-10-16T20:40:25.277Z,26.55
2022-10-16T20:42:52.517Z,28.67
2022-10-16T20:45:19.905Z,28.65
2022-10-16T20:47:47.138Z,28.92
2022-10-16T20:50:16.382Z,23.00
2022-10-16T20:52:43.756Z,23.38
2022-10-16T20:55:11.013Z,28.58
2022-10-16T20:57:38.234Z,28.65
2022-10-16T21:00:06.109Z,28.15
2022-10-16T21:02:33.368Z,22.90
2022-10-16T21:05:00.571Z,26.77
2022-10-16T21:07:28.939Z,23.33
2022-10-16T21:09:57.010Z,23.90
2022-10-16T21:12:25.392Z,13.68
2022-10-16T21:15:13.366Z,17.10
2022-10-16T21:17:40.272Z,28.65
2022-10-16T21:20:07.688Z,28.50
2022-10-16T21:22:34.943Z,33.88
2022-10-16T21:25:02.264Z,32.05
2022-10-16T21:27:29.576Z,20.67
2022-10-16T21:29:56.787Z,23.38
2022-10-16T21:32:24.050Z,16.65
2022-10-16T21:34:51.330Z,19.48
2022-10-16T21:37:18.570Z,15.20
2022-10-16T21:39:45.767Z,18.45
2022-10-16T21:42:12.995Z,17.92
2022-10-16T21:44:40.219Z,22.60
2022-10-16T21:47:07.423Z,24.17
2022-10-16T21:49:34.650Z,16.63
2022-10-16T21:52:01.839Z,17.25
2022-10-16T21:54:29.052Z,15.75
2022-10-16T21:56:57.002Z,20.15
2022-10-16T21:59:24.344Z,14.18
2022-10-16T22:01:54.155Z,20.52
2022-10-16T22:04:21.384Z,17.15
2022-10-16T22:06:48.656Z,24.50
2022-10-16T22:09:16.126Z,20.48
2022-10-16T22:11:44.531Z,15.10
2022-10-16T22:14:13.360Z,19.00
2022-10-16T22:16:41.745Z,15.60
2022-10-16T22:19:09.635Z,15.55
2022-10-16T22:21:38.435Z,16.23
2022-10-16T22:24:06.363Z,23.00
2022-10-16T22:26:34.099Z,11.15
2022-10-16T22:29:01.361Z,19.58
2022-10-16T22:31:28.658Z,12.98
2022-10-16T22:33:56.673Z,15.13
2022-10-16T22:36:24.084Z,20.02
2022-10-16T22:38:51.347Z,20.55
2022-10-16T22:41:18.624Z,16.42
2022-10-16T22:43:48.256Z,20.17
2022-10-16T22:46:25.350Z,15.85
2022-10-16T22:48:53.083Z,11.80
2022-10-16T22:51:20.687Z,19.08
2022-10-16T22:53:48.661Z,19.30
2022-10-16T22:56:16.544Z,13.25
2022-10-16T22:58:44.434Z,17.02
2022-10-16T23:01:23.384Z,19.15
2022-10-16T23:03:50.814Z,17.83
2022-10-16T23:06:18.158Z,12.68
2022-10-16T23:08:45.467Z,14.95
2022-10-16T23:11:13.489Z,13.82
2022-10-16T23:13:45.359Z,22.30
2022-10-16T23:16:13.946Z,12.20
2022-10-16T23:18:41.204Z,18.83
2022-10-16T23:21:09.702Z,14.73
2022-10-16T23:23:37.588Z,11.75
2022-10-16T23:26:09.933Z,19.08
2022-10-16T23:28:37.263Z,23.90
2022-10-16T23:31:05.750Z,18.42
2022-10-16T23:33:33.434Z,20.70
2022-10-16T23:36:00.984Z,16.20
2022-10-16T23:38:28.194Z,12.18
2022-10-16T23:40:55.411Z,13.43
2022-10-16T23:43:22.666Z,15.75
2022-10-16T23:45:49.915Z,15.63
2022-10-16T23:48:17.162Z,12.75
2022-10-16T23:50:44.382Z,14.38
2022-10-16T23:53:11.697Z,12.10
2022-10-16T23:55:39.022Z,18.50
2022-10-16T23:58:06.275Z,16.83
